DLH5ED EDDF-EDDB
Flight info
| Callsign | DLH5ED |
|---|---|
| Flight time | 0h 55m |
| Altitude | 31000 |
| Route | TOBAK3W/25C TOBAK N858 SWALM T201 TAMEB T278 KLF KLF1R |
| Aircraft | A320/M-SDE3FGHIRWY/LB1 |
Departure
| Time | 2026-05-05 17:10 |
|---|---|
| Airport | Frankfurt Main Airport (EDDF) |
Arrival
| Time | 2026-05-05 18:05 |
|---|---|
| Airport | Berlin Brandenburg Airport (EDDB) |
| Time | Latitude | Longitude | Altitude | Speed | Heading |
|---|---|---|---|---|---|
| 2026-05-05 16:23 | 50.04763 | 8.57729 | 356 ft | 0 kts | 270° |
| 2026-05-05 16:49 | 50.04763 | 8.57745 | 361 ft | 4 kts | 270° |
| 2026-05-05 16:49 | 50.04763 | 8.57787 | 356 ft | 4 kts | 270° |
| 2026-05-05 16:50 | 50.04762 | 8.57829 | 358 ft | 4 kts | 270° |
| 2026-05-05 16:50 | 50.04762 | 8.57871 | 358 ft | 4 kts | 270° |
| 2026-05-05 16:50 | 50.04762 | 8.57907 | 361 ft | 1 kts | 270° |
| 2026-05-05 16:50 | 50.04763 | 8.57945 | 361 ft | 4 kts | 263° |
| 2026-05-05 16:51 | 50.04767 | 8.57986 | 359 ft | 4 kts | 256° |
| 2026-05-05 16:51 | 50.04774 | 8.58026 | 364 ft | 4 kts | 251° |
| 2026-05-05 16:51 | 50.04781 | 8.58054 | 362 ft | 0 kts | 250° |
| 2026-05-05 16:56 | 50.04780 | 8.58050 | 361 ft | 2 kts | 250° |
| 2026-05-05 16:56 | 50.04766 | 8.57997 | 360 ft | 8 kts | 243° |
| 2026-05-05 16:56 | 50.04713 | 8.57958 | 361 ft | 8 kts | 175° |
| 2026-05-05 16:56 | 50.04670 | 8.57981 | 362 ft | 5 kts | 160° |
| 2026-05-05 16:57 | 50.04667 | 8.57983 | 362 ft | 0 kts | 160° |
| 2026-05-05 16:57 | 50.04660 | 8.57987 | 363 ft | 3 kts | 160° |
| 2026-05-05 16:57 | 50.04652 | 8.57992 | 361 ft | 0 kts | 160° |
| 2026-05-05 16:57 | 50.04615 | 8.58012 | 361 ft | 0 kts | 160° |
| 2026-05-05 16:58 | 50.04600 | 8.58023 | 360 ft | 5 kts | 155° |
| 2026-05-05 16:58 | 50.04570 | 8.58066 | 362 ft | 7 kts | 116° |
| 2026-05-05 16:58 | 50.04570 | 8.58146 | 364 ft | 8 kts | 77° |
| 2026-05-05 16:58 | 50.04577 | 8.58185 | 367 ft | 3 kts | 66° |
| 2026-05-05 16:59 | 50.04612 | 8.58312 | 372 ft | 16 kts | 67° |
| 2026-05-05 16:59 | 50.04645 | 8.58448 | 374 ft | 7 kts | 70° |
| 2026-05-05 16:59 | 50.04647 | 8.58459 | 372 ft | 0 kts | 70° |
| 2026-05-05 17:01 | 50.04644 | 8.58543 | 369 ft | 14 kts | 118° |
| 2026-05-05 17:02 | 50.04607 | 8.58580 | 370 ft | 6 kts | 158° |
| 2026-05-05 17:02 | 50.04601 | 8.58584 | 369 ft | 0 kts | 158° |
| 2026-05-05 17:07 | 50.04536 | 8.58613 | 371 ft | 18 kts | 175° |
| 2026-05-05 17:08 | 50.04474 | 8.58534 | 370 ft | 0 kts | 250° |
| 2026-05-05 17:09 | 50.04474 | 8.58533 | 370 ft | 1 kts | 250° |
| 2026-05-05 17:09 | 50.04422 | 8.58317 | 371 ft | 56 kts | 250° |
| 2026-05-05 17:09 | 50.04200 | 8.57381 | 365 ft | 124 kts | 249° |
| 2026-05-05 17:09 | 50.03835 | 8.55852 | 447 ft | 169 kts | 250° |
| 2026-05-05 17:10 | 50.03410 | 8.54061 | 972 ft | 181 kts | 249° |
| 2026-05-05 17:10 | 50.02958 | 8.52172 | 1588 ft | 196 kts | 251° |
| 2026-05-05 17:10 | 50.02383 | 8.50188 | 2341 ft | 206 kts | 236° |
| 2026-05-05 17:10 | 50.01338 | 8.48665 | 3244 ft | 210 kts | 210° |
| 2026-05-05 17:11 | 49.99959 | 8.47950 | 4161 ft | 210 kts | 188° |
| 2026-05-05 17:11 | 49.98510 | 8.47627 | 5071 ft | 210 kts | 188° |
| 2026-05-05 17:11 | 49.97063 | 8.47309 | 5960 ft | 210 kts | 188° |
| 2026-05-05 17:11 | 49.95626 | 8.46874 | 6734 ft | 217 kts | 196° |
| 2026-05-05 17:12 | 49.94104 | 8.46190 | 7191 ft | 237 kts | 196° |
| 2026-05-05 17:12 | 49.92537 | 8.45372 | 7986 ft | 244 kts | 207° |
| 2026-05-05 17:12 | 49.91252 | 8.43652 | 8898 ft | 249 kts | 234° |
| 2026-05-05 17:12 | 49.90639 | 8.41133 | 9839 ft | 256 kts | 262° |
| 2026-05-05 17:13 | 49.90902 | 8.38372 | 10665 ft | 267 kts | 290° |
| 2026-05-05 17:13 | 49.92075 | 8.36089 | 11475 ft | 280 kts | 322° |
| 2026-05-05 17:13 | 49.93853 | 8.34709 | 12099 ft | 296 kts | 334° |
| 2026-05-05 17:13 | 49.95831 | 8.33406 | 12379 ft | 320 kts | 335° |
| 2026-05-05 17:14 | 49.97969 | 8.32041 | 12644 ft | 344 kts | 335° |
| 2026-05-05 17:14 | 50.00259 | 8.30589 | 12815 ft | 365 kts | 336° |
| 2026-05-05 17:14 | 50.02725 | 8.29472 | 12851 ft | 373 kts | 348° |
| 2026-05-05 17:14 | 50.05343 | 8.29159 | 13288 ft | 381 kts | 0° |
| 2026-05-05 17:15 | 50.07986 | 8.29619 | 14038 ft | 386 kts | 11° |
| 2026-05-05 17:15 | 50.10582 | 8.30787 | 14724 ft | 390 kts | 17° |
| 2026-05-05 17:15 | 50.13168 | 8.32115 | 15394 ft | 394 kts | 17° |
| 2026-05-05 17:15 | 50.15785 | 8.33480 | 16056 ft | 398 kts | 18° |
| 2026-05-05 17:16 | 50.18417 | 8.34864 | 16722 ft | 401 kts | 18° |
| 2026-05-05 17:16 | 50.21073 | 8.36266 | 17386 ft | 405 kts | 18° |
| 2026-05-05 17:16 | 50.23759 | 8.37687 | 18054 ft | 409 kts | 18° |
| 2026-05-05 17:16 | 50.26465 | 8.39138 | 18641 ft | 413 kts | 20° |
| 2026-05-05 17:17 | 50.29037 | 8.41075 | 19215 ft | 418 kts | 30° |
| 2026-05-05 17:17 | 50.31413 | 8.43721 | 19790 ft | 422 kts | 40° |
| 2026-05-05 17:17 | 50.33619 | 8.46781 | 20354 ft | 425 kts | 41° |
| 2026-05-05 17:17 | 50.35841 | 8.49870 | 20925 ft | 428 kts | 41° |
| 2026-05-05 17:18 | 50.38082 | 8.52982 | 21461 ft | 432 kts | 41° |
| 2026-05-05 17:18 | 50.40340 | 8.56113 | 21994 ft | 435 kts | 41° |
| 2026-05-05 17:18 | 50.42645 | 8.59311 | 22516 ft | 439 kts | 41° |
| 2026-05-05 17:18 | 50.44916 | 8.62462 | 23010 ft | 442 kts | 41° |
| 2026-05-05 17:19 | 50.47256 | 8.65632 | 23473 ft | 445 kts | 40° |
| 2026-05-05 17:19 | 50.49637 | 8.68775 | 23875 ft | 448 kts | 40° |
| 2026-05-05 17:19 | 50.52046 | 8.71914 | 24257 ft | 451 kts | 39° |
| 2026-05-05 17:19 | 50.54478 | 8.75081 | 24643 ft | 454 kts | 41° |
| 2026-05-05 17:20 | 50.56719 | 8.78596 | 25013 ft | 457 kts | 50° |
| 2026-05-05 17:20 | 50.58594 | 8.82645 | 25394 ft | 459 kts | 60° |
| 2026-05-05 17:20 | 50.60120 | 8.86992 | 25764 ft | 461 kts | 63° |
| 2026-05-05 17:20 | 50.61670 | 8.91498 | 26133 ft | 464 kts | 62° |
| 2026-05-05 17:21 | 50.63218 | 8.95965 | 26484 ft | 467 kts | 62° |
| 2026-05-05 17:21 | 50.64782 | 9.00464 | 26837 ft | 469 kts | 62° |
| 2026-05-05 17:21 | 50.66334 | 9.04929 | 27176 ft | 472 kts | 62° |
| 2026-05-05 17:22 | 50.69501 | 9.14073 | 27826 ft | 477 kts | 62° |
| 2026-05-05 17:22 | 50.71032 | 9.18721 | 28137 ft | 479 kts | 67° |
| 2026-05-05 17:22 | 50.72184 | 9.23658 | 28436 ft | 480 kts | 76° |
| 2026-05-05 17:22 | 50.72972 | 9.28779 | 28724 ft | 481 kts | 78° |
| 2026-05-05 17:23 | 50.73739 | 9.33929 | 29001 ft | 483 kts | 78° |
| 2026-05-05 17:23 | 50.74520 | 9.39099 | 29277 ft | 485 kts | 78° |
| 2026-05-05 17:23 | 50.75306 | 9.44287 | 29540 ft | 487 kts | 78° |
| 2026-05-05 17:23 | 50.76095 | 9.49508 | 29786 ft | 489 kts | 78° |
| 2026-05-05 17:24 | 50.76625 | 9.53036 | 30004 ft | 488 kts | 78° |
| 2026-05-05 17:24 | 50.77403 | 9.58244 | 30316 ft | 487 kts | 78° |
| 2026-05-05 17:24 | 50.78165 | 9.63376 | 30628 ft | 485 kts | 79° |
| 2026-05-05 17:24 | 50.78932 | 9.68579 | 30781 ft | 484 kts | 79° |
| 2026-05-05 17:25 | 50.79693 | 9.73735 | 30809 ft | 479 kts | 79° |
| 2026-05-05 17:25 | 50.81205 | 9.83968 | 30807 ft | 477 kts | 79° |
| 2026-05-05 17:26 | 50.82701 | 9.94168 | 30809 ft | 476 kts | 79° |
| 2026-05-05 17:26 | 50.84114 | 10.04251 | 30808 ft | 474 kts | 83° |
| 2026-05-05 17:27 | 50.84249 | 10.14578 | 30809 ft | 468 kts | 98° |
| 2026-05-05 17:27 | 50.83656 | 10.24761 | 30808 ft | 467 kts | 98° |
| 2026-05-05 17:28 | 50.83071 | 10.34995 | 30800 ft | 467 kts | 98° |
| 2026-05-05 17:28 | 50.82469 | 10.45232 | 30801 ft | 466 kts | 98° |
| 2026-05-05 17:29 | 50.81851 | 10.55438 | 30798 ft | 466 kts | 99° |
| 2026-05-05 17:29 | 50.81296 | 10.65640 | 30800 ft | 468 kts | 94° |
| 2026-05-05 17:30 | 50.82195 | 10.75865 | 30797 ft | 474 kts | 75° |
| 2026-05-05 17:30 | 50.84950 | 10.85309 | 30794 ft | 477 kts | 63° |
| 2026-05-05 17:31 | 50.88084 | 10.94580 | 30788 ft | 477 kts | 63° |
| 2026-05-05 17:31 | 50.91204 | 11.03875 | 30787 ft | 478 kts | 64° |
| 2026-05-05 17:32 | 50.94315 | 11.13180 | 30788 ft | 478 kts | 64° |
| 2026-05-05 17:32 | 50.97428 | 11.22518 | 30791 ft | 478 kts | 64° |
| 2026-05-05 17:33 | 51.00539 | 11.31874 | 30790 ft | 479 kts | 64° |
| 2026-05-05 17:33 | 51.03622 | 11.41190 | 30790 ft | 479 kts | 64° |
| 2026-05-05 17:34 | 51.06717 | 11.50591 | 30789 ft | 480 kts | 64° |
| 2026-05-05 17:34 | 51.09804 | 11.60007 | 30787 ft | 480 kts | 64° |
| 2026-05-05 17:35 | 51.12883 | 11.69445 | 30789 ft | 481 kts | 64° |
| 2026-05-05 17:35 | 51.15962 | 11.78891 | 30783 ft | 481 kts | 64° |
| 2026-05-05 17:35 | 51.17498 | 11.83624 | 30376 ft | 479 kts | 64° |
| 2026-05-05 17:36 | 51.19031 | 11.88355 | 29311 ft | 482 kts | 64° |
| 2026-05-05 17:36 | 51.20662 | 11.93040 | 28180 ft | 485 kts | 58° |
| 2026-05-05 17:36 | 51.22658 | 11.97297 | 27100 ft | 486 kts | 49° |
| 2026-05-05 17:36 | 51.24975 | 12.01227 | 26198 ft | 484 kts | 46° |
| 2026-05-05 17:37 | 51.27286 | 12.05092 | 25439 ft | 478 kts | 46° |
| 2026-05-05 17:37 | 51.29570 | 12.08928 | 24725 ft | 473 kts | 46° |
| 2026-05-05 17:37 | 51.31820 | 12.12722 | 24034 ft | 467 kts | 46° |
| 2026-05-05 17:37 | 51.34042 | 12.16477 | 23351 ft | 463 kts | 46° |
| 2026-05-05 17:38 | 51.36242 | 12.20203 | 22610 ft | 458 kts | 46° |
| 2026-05-05 17:38 | 51.38415 | 12.23888 | 21924 ft | 452 kts | 47° |
| 2026-05-05 17:38 | 51.40562 | 12.27534 | 21266 ft | 447 kts | 47° |
| 2026-05-05 17:38 | 51.42689 | 12.31150 | 20885 ft | 445 kts | 47° |
| 2026-05-05 17:39 | 51.44812 | 12.34757 | 20773 ft | 444 kts | 47° |
| 2026-05-05 17:39 | 51.46930 | 12.38358 | 20810 ft | 445 kts | 47° |
| 2026-05-05 17:39 | 51.49059 | 12.41985 | 20809 ft | 445 kts | 47° |
| 2026-05-05 17:39 | 51.51182 | 12.45612 | 20811 ft | 445 kts | 47° |
| 2026-05-05 17:40 | 51.53274 | 12.49191 | 20810 ft | 445 kts | 47° |
| 2026-05-05 17:40 | 51.55395 | 12.52825 | 20814 ft | 445 kts | 47° |
| 2026-05-05 17:40 | 51.57519 | 12.56467 | 20816 ft | 445 kts | 47° |
| 2026-05-05 17:40 | 51.59630 | 12.60090 | 20816 ft | 446 kts | 47° |
| 2026-05-05 17:41 | 51.61742 | 12.63723 | 20543 ft | 441 kts | 47° |
| 2026-05-05 17:41 | 51.63829 | 12.67316 | 19891 ft | 438 kts | 47° |
| 2026-05-05 17:41 | 51.65901 | 12.70893 | 19287 ft | 434 kts | 47° |
| 2026-05-05 17:41 | 51.67948 | 12.74433 | 18706 ft | 430 kts | 47° |
| 2026-05-05 17:42 | 51.69978 | 12.77958 | 18146 ft | 426 kts | 47° |
| 2026-05-05 17:42 | 51.71985 | 12.81447 | 17532 ft | 422 kts | 47° |
| 2026-05-05 17:42 | 51.73950 | 12.84862 | 16954 ft | 418 kts | 47° |
| 2026-05-05 17:42 | 51.75921 | 12.88288 | 16389 ft | 415 kts | 47° |
| 2026-05-05 17:43 | 51.77822 | 12.91843 | 15823 ft | 410 kts | 53° |
| 2026-05-05 17:43 | 51.79354 | 12.95629 | 15273 ft | 407 kts | 59° |
| 2026-05-05 17:43 | 51.80810 | 12.99500 | 14719 ft | 403 kts | 59° |
| 2026-05-05 17:43 | 51.82262 | 13.03362 | 14162 ft | 400 kts | 59° |
| 2026-05-05 17:44 | 51.83700 | 13.07197 | 13618 ft | 396 kts | 59° |
| 2026-05-05 17:44 | 51.85118 | 13.10989 | 13005 ft | 393 kts | 59° |
| 2026-05-05 17:44 | 51.86526 | 13.14758 | 12397 ft | 389 kts | 59° |
| 2026-05-05 17:44 | 51.87920 | 13.18490 | 11811 ft | 385 kts | 59° |
| 2026-05-05 17:45 | 51.89295 | 13.22178 | 11212 ft | 381 kts | 59° |
| 2026-05-05 17:45 | 51.90654 | 13.25829 | 10620 ft | 377 kts | 59° |
| 2026-05-05 17:45 | 51.92235 | 13.29163 | 10136 ft | 369 kts | 41° |
| 2026-05-05 17:45 | 51.94352 | 13.31279 | 10014 ft | 350 kts | 19° |
| 2026-05-05 17:46 | 51.96667 | 13.31935 | 9891 ft | 330 kts | 355° |
| 2026-05-05 17:46 | 51.98813 | 13.31184 | 9784 ft | 312 kts | 337° |
| 2026-05-05 17:46 | 52.00792 | 13.29920 | 9648 ft | 299 kts | 335° |
| 2026-05-05 17:46 | 52.02704 | 13.28650 | 9088 ft | 301 kts | 335° |
| 2026-05-05 17:47 | 52.04652 | 13.27326 | 8280 ft | 302 kts | 335° |
| 2026-05-05 17:47 | 52.06574 | 13.25992 | 7492 ft | 299 kts | 335° |
| 2026-05-05 17:47 | 52.08473 | 13.24659 | 6742 ft | 295 kts | 335° |
| 2026-05-05 17:47 | 52.10340 | 13.23331 | 6016 ft | 291 kts | 335° |
| 2026-05-05 17:48 | 52.12174 | 13.21996 | 5304 ft | 285 kts | 335° |
| 2026-05-05 17:48 | 52.13941 | 13.20685 | 4912 ft | 269 kts | 335° |
| 2026-05-05 17:48 | 52.15557 | 13.19469 | 4880 ft | 241 kts | 335° |
| 2026-05-05 17:48 | 52.17066 | 13.18334 | 4994 ft | 239 kts | 335° |
| 2026-05-05 17:49 | 52.18574 | 13.17203 | 5003 ft | 238 kts | 335° |
| 2026-05-05 17:49 | 52.20083 | 13.16074 | 5007 ft | 238 kts | 335° |
| 2026-05-05 17:49 | 52.21564 | 13.14965 | 4851 ft | 236 kts | 335° |
| 2026-05-05 17:49 | 52.23055 | 13.13842 | 4497 ft | 236 kts | 335° |
| 2026-05-05 17:50 | 52.24540 | 13.12715 | 4168 ft | 234 kts | 335° |
| 2026-05-05 17:50 | 52.25991 | 13.11603 | 4000 ft | 226 kts | 335° |
| 2026-05-05 17:50 | 52.27365 | 13.10548 | 3997 ft | 210 kts | 337° |
| 2026-05-05 17:50 | 52.28727 | 13.10164 | 3994 ft | 193 kts | 12° |
| 2026-05-05 17:51 | 52.29908 | 13.10986 | 4013 ft | 182 kts | 32° |
| 2026-05-05 17:51 | 52.30962 | 13.12111 | 4048 ft | 181 kts | 34° |
| 2026-05-05 17:51 | 52.31993 | 13.13277 | 4013 ft | 180 kts | 35° |
| 2026-05-05 17:51 | 52.33017 | 13.14447 | 4008 ft | 179 kts | 35° |
| 2026-05-05 17:52 | 52.34040 | 13.15616 | 4000 ft | 180 kts | 35° |
| 2026-05-05 17:52 | 52.35064 | 13.16790 | 3999 ft | 180 kts | 35° |
| 2026-05-05 17:52 | 52.36090 | 13.17968 | 4003 ft | 180 kts | 35° |
| 2026-05-05 17:52 | 52.37113 | 13.19144 | 4007 ft | 180 kts | 35° |
| 2026-05-05 17:53 | 52.38139 | 13.20323 | 4007 ft | 180 kts | 35° |
| 2026-05-05 17:53 | 52.39163 | 13.21500 | 4009 ft | 180 kts | 35° |
| 2026-05-05 17:53 | 52.40213 | 13.22606 | 3997 ft | 180 kts | 21° |
| 2026-05-05 17:53 | 52.41434 | 13.22650 | 4005 ft | 180 kts | 339° |
| 2026-05-05 17:54 | 52.42354 | 13.21359 | 4005 ft | 180 kts | 297° |
| 2026-05-05 17:54 | 52.42539 | 13.19363 | 4013 ft | 181 kts | 263° |
| 2026-05-05 17:54 | 52.42289 | 13.17338 | 4007 ft | 181 kts | 256° |
| 2026-05-05 17:54 | 52.41972 | 13.15335 | 4008 ft | 182 kts | 255° |
| 2026-05-05 17:55 | 52.41648 | 13.13335 | 4008 ft | 182 kts | 255° |
| 2026-05-05 17:55 | 52.41322 | 13.11336 | 4008 ft | 182 kts | 255° |
| 2026-05-05 17:55 | 52.40996 | 13.09334 | 4011 ft | 182 kts | 255° |
| 2026-05-05 17:55 | 52.40670 | 13.07336 | 4009 ft | 182 kts | 255° |
| 2026-05-05 17:56 | 52.40343 | 13.05337 | 4009 ft | 182 kts | 255° |
| 2026-05-05 17:56 | 52.40016 | 13.03334 | 4013 ft | 182 kts | 255° |
| 2026-05-05 17:56 | 52.39688 | 13.01328 | 4010 ft | 182 kts | 255° |
| 2026-05-05 17:56 | 52.39362 | 12.99326 | 4009 ft | 182 kts | 255° |
| 2026-05-05 17:57 | 52.39035 | 12.97325 | 4012 ft | 182 kts | 255° |
| 2026-05-05 17:57 | 52.38571 | 12.95419 | 4010 ft | 182 kts | 230° |
| 2026-05-05 17:57 | 52.37513 | 12.94368 | 4010 ft | 181 kts | 188° |
| 2026-05-05 17:57 | 52.36276 | 12.94634 | 4014 ft | 181 kts | 160° |
| 2026-05-05 17:58 | 52.35106 | 12.95401 | 4010 ft | 181 kts | 156° |
| 2026-05-05 17:58 | 52.33937 | 12.96245 | 4021 ft | 195 kts | 155° |
| 2026-05-05 17:58 | 52.32582 | 12.97236 | 3983 ft | 226 kts | 155° |
| 2026-05-05 17:58 | 52.31122 | 12.98307 | 4007 ft | 233 kts | 155° |
| 2026-05-05 17:59 | 52.29640 | 12.99390 | 4007 ft | 234 kts | 155° |
| 2026-05-05 17:59 | 52.28321 | 13.00891 | 4014 ft | 232 kts | 128° |
| 2026-05-05 17:59 | 52.27671 | 13.03259 | 4007 ft | 231 kts | 100° |
| 2026-05-05 17:59 | 52.27446 | 13.05857 | 4007 ft | 231 kts | 96° |
| 2026-05-05 18:00 | 52.27325 | 13.08471 | 4006 ft | 231 kts | 85° |
| 2026-05-05 18:00 | 52.27746 | 13.10979 | 4005 ft | 231 kts | 68° |
| 2026-05-05 18:00 | 52.28345 | 13.13413 | 4005 ft | 231 kts | 68° |
| 2026-05-05 18:00 | 52.28941 | 13.15848 | 4004 ft | 231 kts | 68° |
| 2026-05-05 18:01 | 52.29524 | 13.18259 | 4004 ft | 231 kts | 68° |
| 2026-05-05 18:01 | 52.30117 | 13.20719 | 3763 ft | 234 kts | 68° |
| 2026-05-05 18:01 | 52.30711 | 13.23187 | 3432 ft | 232 kts | 68° |
| 2026-05-05 18:01 | 52.31298 | 13.25628 | 3125 ft | 230 kts | 68° |
| 2026-05-05 18:02 | 52.31879 | 13.28045 | 2811 ft | 227 kts | 68° |
| 2026-05-05 18:02 | 52.32451 | 13.30428 | 2504 ft | 224 kts | 68° |
| 2026-05-05 18:02 | 52.32996 | 13.32702 | 2200 ft | 203 kts | 69° |
| 2026-05-05 18:02 | 52.33483 | 13.34734 | 1982 ft | 181 kts | 68° |
| 2026-05-05 18:03 | 52.33923 | 13.36577 | 1725 ft | 166 kts | 67° |
| 2026-05-05 18:03 | 52.34321 | 13.38241 | 1503 ft | 150 kts | 68° |
| 2026-05-05 18:03 | 52.34679 | 13.39739 | 1327 ft | 136 kts | 67° |
| 2026-05-05 18:03 | 52.35014 | 13.41142 | 1137 ft | 130 kts | 67° |
| 2026-05-05 18:04 | 52.35340 | 13.42494 | 936 ft | 127 kts | 67° |
| 2026-05-05 18:04 | 52.35658 | 13.43838 | 798 ft | 126 kts | 68° |
| 2026-05-05 18:04 | 52.35980 | 13.45193 | 587 ft | 129 kts | 67° |
| 2026-05-05 18:04 | 52.36311 | 13.46540 | 455 ft | 127 kts | 68° |
| 2026-05-05 18:05 | 52.36632 | 13.47890 | 276 ft | 127 kts | 69° |
| 2026-05-05 18:05 | 52.36941 | 13.49235 | 164 ft | 122 kts | 69° |
| 2026-05-05 18:05 | 52.37201 | 13.50327 | 157 ft | 79 kts | 68° |
| 2026-05-05 18:05 | 52.37303 | 13.50833 | 158 ft | 28 kts | 81° |
| 2026-05-05 18:06 | 52.37295 | 13.51111 | 160 ft | 22 kts | 98° |
| 2026-05-05 18:06 | 52.37288 | 13.51187 | 162 ft | 18 kts | 97° |
| 2026-05-05 18:06 | 52.37286 | 13.51211 | 162 ft | 6 kts | 97° |
| 2026-05-05 18:06 | 52.37253 | 13.51320 | 161 ft | 12 kts | 156° |
| 2026-05-05 18:07 | 52.37173 | 13.51197 | 159 ft | 20 kts | 249° |
| 2026-05-05 18:07 | 52.37125 | 13.50997 | 159 ft | 18 kts | 248° |
| 2026-05-05 18:07 | 52.37082 | 13.50811 | 159 ft | 17 kts | 250° |
| 2026-05-05 18:07 | 52.37039 | 13.50632 | 157 ft | 17 kts | 249° |
| 2026-05-05 18:08 | 52.37029 | 13.50592 | 157 ft | 0 kts | 246° |
| 2026-05-05 18:08 | 52.37024 | 13.50571 | 157 ft | 8 kts | 246° |
| 2026-05-05 18:08 | 52.36982 | 13.50405 | 155 ft | 16 kts | 249° |
| 2026-05-05 18:08 | 52.36939 | 13.50214 | 153 ft | 2 kts | 250° |
| 2026-05-05 18:09 | 52.36928 | 13.50172 | 153 ft | 13 kts | 240° |
| 2026-05-05 18:09 | 52.36894 | 13.50131 | 151 ft | 1 kts | 193° |
| 2026-05-05 18:09 | 52.36891 | 13.50130 | 151 ft | 2 kts | 192° |
| 2026-05-05 18:09 | 52.36872 | 13.50132 | 150 ft | 3 kts | 164° |
| 2026-05-05 18:10 | 52.36852 | 13.50142 | 151 ft | 3 kts | 163° |
| 2026-05-05 18:10 | 52.36842 | 13.50147 | 151 ft | 1 kts | 160° |
| 2026-05-05 18:10 | 52.36785 | 13.50180 | 153 ft | 18 kts | 167° |
| 2026-05-05 18:10 | 52.36680 | 13.50170 | 151 ft | 14 kts | 162° |
| 2026-05-05 18:11 | 52.36597 | 13.50222 | 151 ft | 11 kts | 158° |
| 2026-05-05 18:11 | 52.36587 | 13.50228 | 151 ft | 1 kts | 158° |
| 2026-05-05 18:11 | 52.36572 | 13.50264 | 152 ft | 5 kts | 103° |
| 2026-05-05 18:11 | 52.36583 | 13.50320 | 153 ft | 5 kts | 67° |
| 2026-05-05 18:12 | 52.36598 | 13.50379 | 154 ft | 6 kts | 68° |
| 2026-05-05 18:12 | 52.36612 | 13.50437 | 154 ft | 4 kts | 68° |
| 2026-05-05 18:12 | 52.36613 | 13.50443 | 154 ft | 0 kts | 68° |
| 2026-05-05 18:12 | 52.36614 | 13.50446 | 154 ft | 0 kts | 68° |